• Join FlightAware (Why Join?)
  • Login
  • US Flag 
07:45PM EDT


 

Airport Tracker/Info


-or-


 

Live Flight TrackerFlight Track Log ✈ RPA3228 ✈ 13-Jul-2013 ✈ KBNA - KDCA

Flight Track Log - Related Links

Times and Time Zones

All times are in EDT time to prevent confusion due to time zone crossing. See the RPA3228 flight status page for this flight to view local times or setup timezone preferences in your user account.

Time Position Orientation Groundspeed Altitude Reporting Facility
EDT Latitude Longitude Course Direction KTS MPH feet Rate Location/Type
07:46AM 36.1333 -86.7000 64° Northeast 155 178 1,400  Level Nashville TRACON
07:47AM 36.1500 -86.7500 292° West 222 255 2,800 2,220 Climbing Nashville TRACON
07:48AM 36.1624 -86.2881 76° East  Level FlightAware Approximate
07:48AM 36.1833 -86.8000 310° West 268 308 5,700  Level Nashville TRACON
07:49AM 36.1862 -86.1634 80° East  Level FlightAware Approximate
07:49AM 36.2103 -86.6811 74° East 313 360 10,300  Level Memphis Center
07:50AM 36.2108 -86.0398 64° Northeast  Level FlightAware Approximate
07:50AM 36.2069 -86.5708 92° East 313 360 12,400  Level Memphis Center
07:51AM 36.2567 -85.9249 64° Northeast  Level FlightAware Approximate
07:51AM 36.2056 -86.4550 91° East 326 375 15,300  Level Memphis Center
07:52AM 36.2039 -86.3369 91° East 336 387 17,900 2,400 Climbing Memphis Center
07:53AM 36.2017 -86.2108 91° East 350 403 20,200 2,220 Climbing Memphis Center
07:54AM 36.2036 -86.0822 89° East 368 423 22,400 1,920 Climbing Memphis Center
07:57AM 36.3133 -85.8169 63° Northeast 383 441 26,700 1,740 Climbing Indianapolis Center
07:58AM 36.3686 -85.7014 59° Northeast 387 445 28,500 1,500 Climbing Indianapolis Center
07:59AM 36.4242 -85.5833 60° Northeast 393 452 29,700 1,140 Climbing Indianapolis Center
08:00AM 36.4750 -85.4572 63° Northeast 406 467 30,800 600 Climbing Indianapolis Center
08:01AM 36.4992 -85.3178 78° East 415 478 31,000 60 Climbing Indianapolis Center
08:02AM 36.5158 -85.1767 82° East 412 474 31,000  Level Indianapolis Center
08:03AM 36.5331 -85.0325 82° East 418 481 31,000  Level Indianapolis Center
08:04AM 36.5531 -84.8886 80° East 421 484 31,000  Level Indianapolis Center
08:05AM 36.5758 -84.7425 79° East 427 491 31,000  Level Indianapolis Center
08:06AM 36.5983 -84.5958 79° East 431 496 31,000 60 Level Indianapolis Center
08:07AM 36.6286 -84.4339 77° East 418 481 31,200 540 Climbing Indianapolis Center
08:08AM 36.6597 -84.2917 75° East 425 489 32,100 840 Climbing Indianapolis Center
08:09AM 36.7011 -84.1511 70° East 431 496 33,000 420 Climbing Indianapolis Center
08:10AM 36.7456 -84.0119 68° East 430 495 33,000  Level Indianapolis Center
08:11AM 36.7925 -83.8719 67° East 435 501 33,000  Level Indianapolis Center
08:12AM 36.8542 -83.7339 61° Northeast 454 522 33,000  Level Indianapolis Center
08:13AM 36.9067 -83.5942 65° Northeast 448 516 33,000  Level Indianapolis Center
08:14AM 36.9586 -83.4531 65° Northeast 447 514 33,000  Level Indianapolis Center
08:15AM 37.0103 -83.3119 65° Northeast 445 512 33,000  Level Indianapolis Center
08:16AM 37.0631 -83.1669 65° Northeast 451 519 33,000  Level Indianapolis Center
08:17AM 37.1197 -83.0147 65° Northeast 476 548 33,000  Level Indianapolis Center
08:18AM 37.1758 -82.8542 66° East 493 567 33,000  Level Indianapolis Center
08:19AM 37.2333 -82.6958 65° Northeast 494 568 33,000  Level Indianapolis Center
08:20AM 37.2894 -82.5383 66° East 491 565 33,000  Level Indianapolis Center
08:21AM 37.3558 -82.3508 66° East 500 575 33,000  Level Indianapolis Center
08:22AM 37.4111 -82.1936 66° East 492 566 33,000  Level Indianapolis Center
08:23AM 37.4669 -82.0358 66° East 493 567 33,000  Level Indianapolis Center
08:24AM 37.5219 -81.8803 66° East 487 560 33,000  Level Indianapolis Center
08:25AM 37.5761 -81.7236 66° East 486 559 33,000  Level Indianapolis Center
08:26AM 37.6294 -81.5669 67° East 485 558 33,000  Level Indianapolis Center
08:27AM 37.6856 -81.4036 66° East 484 557 33,000  Level Indianapolis Center
08:28AM 37.7375 -81.2517 67° East 483 556 33,000  Level Indianapolis Center
08:29AM 37.7886 -81.1014 67° East 479 551 33,000  Level Indianapolis Center
08:30AM 37.8467 -80.9367 66° East 479 551 33,000  Level Indianapolis Center
08:31AM 37.9003 -80.7831 66° East 479 551 33,000  Level Indianapolis Center
08:32AM 37.9550 -80.6292 66° East 481 554 33,000  Level Indianapolis Center
08:33AM 38.0017 -80.5067 64° Northeast 471 542 33,000  Level Washington Center
08:34AM 38.0556 -80.3572 65° Northeast 471 542 33,000  Level Washington Center
08:35AM 38.1097 -80.1997 66° East 471 542 33,000  Level Washington Center
08:36AM 38.1703 -80.0317 65° Northeast 466 536 33,000  Level Washington Center
08:37AM 38.2239 -79.8789 66° East 471 542 33,000  Level Washington Center
08:38AM 38.2794 -79.7233 65° Northeast 471 542 33,000  Level Washington Center
08:39AM 38.3325 -79.5700 66° East 471 542 33,000  Level Washington Center
08:40AM 38.3856 -79.4167 66° East 471 542 33,000 -720 Level Washington Center
08:41AM 38.4294 -79.2758 68° East 471 542 31,600 -1,920 Descending Washington Center
08:42AM 38.4575 -79.1128 78° East 464 534 29,200 -2,220 Descending Washington Center
08:43AM 38.4869 -78.9578 76° East 458 527 27,200 -2,040 Descending Washington Center
08:44AM 38.5103 -78.7917 80° East 436 502 25,100 -2,220 Descending Washington Center
08:45AM 38.5325 -78.6492 79° East 425 489 22,900 -1,680 Descending Washington Center
08:46AM 38.5550 -78.5067 79° East 414 476 21,800 -1,140 Descending Washington Center
08:47AM 38.5747 -78.3722 79° East 404 465 20,700 -1,500 Descending Washington Center
08:48AM 38.6028 -78.2350 75° East 393 452 18,800 -1,500 Descending Washington Center
08:49AM 38.6411 -78.1114 68° East 381 438 17,400 -1,740 Descending Washington Center
08:50AM 38.6878 -77.9667 68° East 370 426 15,000 -2,040 Descending Washington Center
08:51AM 38.7233 -77.8561 68° East 351 404 13,400 -1,560 Descending Washington Center
08:52AM 38.7769 -77.7644 53° Northeast 327 376 12,000 -1,380 Descending Washington Center
08:53AM 38.8286 -77.6756 53° Northeast 314 361 10,700 -1,200 Descending Washington Center
08:54AM 38.8614 -77.5911 63° Northeast 294 338 9,600 -1,200 Descending Washington Center
08:55AM 38.8986 -77.4828 66° East 288 331 8,400 -1,320 Descending Washington Center
08:57AM 38.8667 -77.3500 107° East 271 312 6,500 -1,020 Descending Potomac TRACON
08:58AM 38.8333 -77.2667 117° Southeast 249 287 6,000 -840 Descending Potomac TRACON
08:58AM 38.8000 -77.2167 131° Southeast 223 257 5,000 -1,080 Descending Potomac TRACON
08:59AM 38.7833 -77.1500 108° East 218 251 4,000 -540 Descending Potomac TRACON
09:00AM 38.7333 -77.1167 153° Southeast 215 247 4,000  Level Potomac TRACON
09:01AM 38.6667 -77.1000 169° South 213 245 4,000  Level Potomac TRACON
09:02AM 38.6167 -77.1000 180° South 214 246 4,000  Level Potomac TRACON
09:03AM 38.5667 -77.1000 180° South 215 247 4,000 -240 Level Potomac TRACON
09:04AM 38.5167 -77.0667 152° Southeast 226 260 3,600 -540 Descending Potomac TRACON
09:05AM 38.5167 -77.0167 90° East 227 261 3,000 -420 Descending Potomac TRACON
09:06AM 38.5833 -77.0167 360° North 235 270 2,900 -300 Descending Potomac TRACON
09:07AM 38.6500 -77.0167 360° North 227 261 2,500 -240 Descending Potomac TRACON
09:08AM 38.7000 -77.0167 360° North 177 204 2,500  Level Potomac TRACON